sensor_id;sensor_type;location;lat;lon;timestamp;P1;durP1;ratioP1;P2;durP2;ratioP2
68386;SDS011;55338;43.062;25.624;2022-07-05T00:01:59;7.10;;;3.20;;
68386;SDS011;55338;43.062;25.624;2022-07-05T00:04:25;6.00;;;3.00;;
68386;SDS011;55338;43.062;25.624;2022-07-05T00:06:50;4.60;;;2.67;;
68386;SDS011;55338;43.062;25.624;2022-07-05T00:09:35;4.68;;;2.70;;
68386;SDS011;55338;43.062;25.624;2022-07-05T00:12:02;5.78;;;2.70;;
68386;SDS011;55338;43.062;25.624;2022-07-05T00:14:28;5.23;;;3.50;;
68386;SDS011;55338;43.062;25.624;2022-07-05T00:16:55;5.90;;;2.90;;
68386;SDS011;55338;43.062;25.624;2022-07-05T00:19:20;4.90;;;2.88;;
68386;SDS011;55338;43.062;25.624;2022-07-05T00:21:46;5.47;;;2.80;;
68386;SDS011;55338;43.062;25.624;2022-07-05T00:24:12;9.80;;;2.90;;
68386;SDS011;55338;43.062;25.624;2022-07-05T00:26:38;5.23;;;2.70;;
68386;SDS011;55338;43.062;25.624;2022-07-05T00:29:04;8.02;;;2.95;;
68386;SDS011;55338;43.062;25.624;2022-07-05T00:31:30;4.97;;;2.75;;
68386;SDS011;55338;43.062;25.624;2022-07-05T00:33:56;4.90;;;2.90;;
68386;SDS011;55338;43.062;25.624;2022-07-05T00:36:21;6.90;;;2.70;;
68386;SDS011;55338;43.062;25.624;2022-07-05T00:38:47;4.90;;;2.70;;
68386;SDS011;55338;43.062;25.624;2022-07-05T00:41:13;7.35;;;3.00;;
68386;SDS011;55338;43.062;25.624;2022-07-05T00:43:51;4.73;;;2.60;;
68386;SDS011;55338;43.062;25.624;2022-07-05T00:46:21;5.13;;;2.72;;
68386;SDS011;55338;43.062;25.624;2022-07-05T00:48:47;5.63;;;2.63;;
68386;SDS011;55338;43.062;25.624;2022-07-05T00:51:13;4.47;;;3.10;;
68386;SDS011;55338;43.062;25.624;2022-07-05T00:53:40;6.38;;;3.00;;
68386;SDS011;55338;43.062;25.624;2022-07-05T00:56:07;7.63;;;2.63;;
68386;SDS011;55338;43.062;25.624;2022-07-05T00:58:33;7.28;;;3.50;;
68386;SDS011;55338;43.062;25.624;2022-07-05T01:01:01;4.93;;;2.65;;
68386;SDS011;55338;43.062;25.624;2022-07-05T01:03:28;4.82;;;3.05;;
68386;SDS011;55338;43.062;25.624;2022-07-05T01:05:55;5.30;;;2.93;;
68386;SDS011;55338;43.062;25.624;2022-07-05T01:08:22;4.78;;;2.72;;
68386;SDS011;55338;43.062;25.624;2022-07-05T01:10:49;5.72;;;3.20;;
68386;SDS011;55338;43.062;25.624;2022-07-05T01:13:16;5.25;;;2.63;;
68386;SDS011;55338;43.062;25.624;2022-07-05T01:15:42;8.80;;;2.93;;
68386;SDS011;55338;43.062;25.624;2022-07-05T01:18:08;5.57;;;2.55;;
68386;SDS011;55338;43.062;25.624;2022-07-05T01:20:35;4.70;;;2.88;;
68386;SDS011;55338;43.062;25.624;2022-07-05T01:23:02;5.18;;;2.50;;
68386;SDS011;55338;43.062;25.624;2022-07-05T01:25:29;9.80;;;2.90;;
68386;SDS011;55338;43.062;25.624;2022-07-05T01:27:57;9.63;;;3.42;;
68386;SDS011;55338;43.062;25.624;2022-07-05T01:30:24;6.38;;;3.10;;
68386;SDS011;55338;43.062;25.624;2022-07-05T01:32:50;7.22;;;3.33;;
68386;SDS011;55338;43.062;25.624;2022-07-05T01:35:17;5.45;;;2.67;;
68386;SDS011;55338;43.062;25.624;2022-07-05T01:37:48;5.93;;;2.60;;
68386;SDS011;55338;43.062;25.624;2022-07-05T01:40:15;6.05;;;2.53;;
68386;SDS011;55338;43.062;25.624;2022-07-05T01:42:42;5.93;;;2.55;;
68386;SDS011;55338;43.062;25.624;2022-07-05T01:45:08;6.65;;;2.60;;
68386;SDS011;55338;43.062;25.624;2022-07-05T01:47:35;7.05;;;3.03;;
68386;SDS011;55338;43.062;25.624;2022-07-05T01:50:04;6.57;;;2.93;;
68386;SDS011;55338;43.062;25.624;2022-07-05T01:52:32;6.32;;;2.53;;
68386;SDS011;55338;43.062;25.624;2022-07-05T01:55:01;10.52;;;2.90;;
68386;SDS011;55338;43.062;25.624;2022-07-05T01:57:28;5.25;;;2.50;;
68386;SDS011;55338;43.062;25.624;2022-07-05T01:59:54;5.80;;;2.80;;
68386;SDS011;55338;43.062;25.624;2022-07-05T02:02:19;4.53;;;2.63;;
68386;SDS011;55338;43.062;25.624;2022-07-05T02:04:45;7.45;;;3.15;;
68386;SDS011;55338;43.062;25.624;2022-07-05T02:07:11;5.23;;;3.00;;
68386;SDS011;55338;43.062;25.624;2022-07-05T02:09:37;5.93;;;2.67;;
68386;SDS011;55338;43.062;25.624;2022-07-05T02:12:04;7.65;;;2.83;;
68386;SDS011;55338;43.062;25.624;2022-07-05T02:14:30;3.90;;;2.40;;
68386;SDS011;55338;43.062;25.624;2022-07-05T02:16:56;5.38;;;2.42;;
68386;SDS011;55338;43.062;25.624;2022-07-05T02:19:22;5.03;;;2.80;;
68386;SDS011;55338;43.062;25.624;2022-07-05T02:21:49;5.63;;;2.53;;
68386;SDS011;55338;43.062;25.624;2022-07-05T02:24:14;5.53;;;2.63;;
68386;SDS011;55338;43.062;25.624;2022-07-05T02:26:40;11.45;;;3.22;;
68386;SDS011;55338;43.062;25.624;2022-07-05T02:29:06;8.13;;;2.60;;
68386;SDS011;55338;43.062;25.624;2022-07-05T02:31:32;7.25;;;2.97;;
68386;SDS011;55338;43.062;25.624;2022-07-05T02:33:58;6.50;;;2.30;;
68386;SDS011;55338;43.062;25.624;2022-07-05T02:36:24;7.20;;;2.97;;
68386;SDS011;55338;43.062;25.624;2022-07-05T02:38:50;5.43;;;2.50;;
68386;SDS011;55338;43.062;25.624;2022-07-05T02:41:17;4.70;;;2.75;;
68386;SDS011;55338;43.062;25.624;2022-07-05T02:43:43;4.72;;;2.50;;
68386;SDS011;55338;43.062;25.624;2022-07-05T02:46:09;5.65;;;2.72;;
68386;SDS011;55338;43.062;25.624;2022-07-05T02:48:35;4.73;;;2.53;;
68386;SDS011;55338;43.062;25.624;2022-07-05T02:51:02;5.93;;;2.70;;
68386;SDS011;55338;43.062;25.624;2022-07-05T02:53:29;6.60;;;2.90;;
68386;SDS011;55338;43.062;25.624;2022-07-05T02:55:55;7.47;;;2.75;;
68386;SDS011;55338;43.062;25.624;2022-07-05T02:58:20;8.40;;;2.60;;
68386;SDS011;55338;43.062;25.624;2022-07-05T03:00:47;6.88;;;3.78;;
68386;SDS011;55338;43.062;25.624;2022-07-05T03:03:13;6.53;;;2.97;;
68386;SDS011;55338;43.062;25.624;2022-07-05T03:05:39;7.27;;;3.10;;
68386;SDS011;55338;43.062;25.624;2022-07-05T03:08:05;8.52;;;2.95;;
68386;SDS011;55338;43.062;25.624;2022-07-05T03:10:31;9.88;;;3.35;;
68386;SDS011;55338;43.062;25.624;2022-07-05T03:12:58;10.00;;;3.60;;
68386;SDS011;55338;43.062;25.624;2022-07-05T03:15:24;12.13;;;3.42;;
68386;SDS011;55338;43.062;25.624;2022-07-05T03:17:50;12.95;;;3.95;;
68386;SDS011;55338;43.062;25.624;2022-07-05T03:20:16;17.57;;;4.33;;
68386;SDS011;55338;43.062;25.624;2022-07-05T03:22:41;12.03;;;3.53;;
68386;SDS011;55338;43.062;25.624;2022-07-05T03:25:08;9.15;;;3.00;;
68386;SDS011;55338;43.062;25.624;2022-07-05T03:27:34;8.13;;;3.55;;
68386;SDS011;55338;43.062;25.624;2022-07-05T03:30:00;10.17;;;3.33;;
68386;SDS011;55338;43.062;25.624;2022-07-05T03:32:27;10.45;;;3.58;;
68386;SDS011;55338;43.062;25.624;2022-07-05T03:34:53;9.70;;;3.20;;
68386;SDS011;55338;43.062;25.624;2022-07-05T03:37:19;10.67;;;3.00;;
68386;SDS011;55338;43.062;25.624;2022-07-05T03:39:45;13.57;;;2.90;;
68386;SDS011;55338;43.062;25.624;2022-07-05T03:42:10;9.13;;;3.47;;
68386;SDS011;55338;43.062;25.624;2022-07-05T03:44:37;12.05;;;3.80;;
68386;SDS011;55338;43.062;25.624;2022-07-05T03:47:02;7.20;;;2.60;;
68386;SDS011;55338;43.062;25.624;2022-07-05T03:49:28;10.60;;;3.00;;
68386;SDS011;55338;43.062;25.624;2022-07-05T03:51:54;8.27;;;3.05;;
68386;SDS011;55338;43.062;25.624;2022-07-05T03:54:20;5.78;;;2.50;;
68386;SDS011;55338;43.062;25.624;2022-07-05T03:56:46;7.73;;;2.93;;
68386;SDS011;55338;43.062;25.624;2022-07-05T03:59:11;7.18;;;2.50;;
68386;SDS011;55338;43.062;25.624;2022-07-05T04:01:37;6.50;;;3.30;;
68386;SDS011;55338;43.062;25.624;2022-07-05T04:04:03;6.03;;;3.00;;
68386;SDS011;55338;43.062;25.624;2022-07-05T04:06:29;7.07;;;3.20;;
68386;SDS011;55338;43.062;25.624;2022-07-05T04:08:55;7.37;;;3.53;;
68386;SDS011;55338;43.062;25.624;2022-07-05T04:11:20;11.20;;;3.30;;
68386;SDS011;55338;43.062;25.624;2022-07-05T04:13:46;10.73;;;3.60;;
68386;SDS011;55338;43.062;25.624;2022-07-05T04:16:12;9.00;;;3.20;;
68386;SDS011;55338;43.062;25.624;2022-07-05T04:18:38;7.83;;;3.10;;
68386;SDS011;55338;43.062;25.624;2022-07-05T04:21:03;11.15;;;3.83;;
68386;SDS011;55338;43.062;25.624;2022-07-05T04:23:30;10.65;;;3.85;;
68386;SDS011;55338;43.062;25.624;2022-07-05T04:25:56;8.93;;;4.30;;
68386;SDS011;55338;43.062;25.624;2022-07-05T04:28:22;13.27;;;5.63;;
68386;SDS011;55338;43.062;25.624;2022-07-05T04:30:48;13.95;;;7.50;;
68386;SDS011;55338;43.062;25.624;2022-07-05T04:33:13;14.00;;;7.27;;
68386;SDS011;55338;43.062;25.624;2022-07-05T04:35:39;14.27;;;6.82;;
68386;SDS011;55338;43.062;25.624;2022-07-05T04:38:05;13.67;;;7.37;;
68386;SDS011;55338;43.062;25.624;2022-07-05T04:40:31;12.18;;;5.90;;
68386;SDS011;55338;43.062;25.624;2022-07-05T04:42:57;8.57;;;4.40;;
68386;SDS011;55338;43.062;25.624;2022-07-05T04:45:22;13.45;;;6.53;;
68386;SDS011;55338;43.062;25.624;2022-07-05T04:47:48;11.53;;;5.03;;
68386;SDS011;55338;43.062;25.624;2022-07-05T04:50:14;13.40;;;4.95;;
68386;SDS011;55338;43.062;25.624;2022-07-05T04:52:40;12.43;;;5.23;;
68386;SDS011;55338;43.062;25.624;2022-07-05T04:55:05;19.60;;;5.45;;
68386;SDS011;55338;43.062;25.624;2022-07-05T04:57:41;13.32;;;5.30;;
68386;SDS011;55338;43.062;25.624;2022-07-05T05:00:11;23.88;;;11.93;;
68386;SDS011;55338;43.062;25.624;2022-07-05T05:02:39;16.63;;;7.00;;
68386;SDS011;55338;43.062;25.624;2022-07-05T05:05:05;14.57;;;5.22;;
68386;SDS011;55338;43.062;25.624;2022-07-05T05:07:32;14.50;;;4.55;;
68386;SDS011;55338;43.062;25.624;2022-07-05T05:09:58;18.42;;;5.22;;
68386;SDS011;55338;43.062;25.624;2022-07-05T05:12:24;12.23;;;6.13;;
68386;SDS011;55338;43.062;25.624;2022-07-05T05:14:50;13.77;;;5.90;;
68386;SDS011;55338;43.062;25.624;2022-07-05T05:17:16;21.08;;;5.78;;
68386;SDS011;55338;43.062;25.624;2022-07-05T05:19:42;14.50;;;5.07;;
68386;SDS011;55338;43.062;25.624;2022-07-05T05:22:09;15.30;;;5.30;;
68386;SDS011;55338;43.062;25.624;2022-07-05T05:24:35;11.38;;;5.05;;
68386;SDS011;55338;43.062;25.624;2022-07-05T05:27:01;14.60;;;5.70;;
68386;SDS011;55338;43.062;25.624;2022-07-05T05:29:27;8.90;;;4.85;;
68386;SDS011;55338;43.062;25.624;2022-07-05T05:31:53;17.23;;;6.00;;
68386;SDS011;55338;43.062;25.624;2022-07-05T05:34:20;12.48;;;5.97;;
68386;SDS011;55338;43.062;25.624;2022-07-05T05:36:46;15.48;;;8.32;;
68386;SDS011;55338;43.062;25.624;2022-07-05T05:39:12;14.35;;;7.65;;
68386;SDS011;55338;43.062;25.624;2022-07-05T05:41:38;14.77;;;6.27;;
68386;SDS011;55338;43.062;25.624;2022-07-05T05:44:04;7.03;;;4.40;;
68386;SDS011;55338;43.062;25.624;2022-07-05T05:46:30;17.30;;;4.10;;
68386;SDS011;55338;43.062;25.624;2022-07-05T05:48:56;8.82;;;4.90;;
68386;SDS011;55338;43.062;25.624;2022-07-05T05:51:21;10.77;;;4.87;;
68386;SDS011;55338;43.062;25.624;2022-07-05T05:53:47;11.18;;;5.03;;
68386;SDS011;55338;43.062;25.624;2022-07-05T05:56:13;11.33;;;5.70;;
68386;SDS011;55338;43.062;25.624;2022-07-05T05:58:40;7.57;;;5.10;;
68386;SDS011;55338;43.062;25.624;2022-07-05T06:01:06;12.52;;;6.32;;
68386;SDS011;55338;43.062;25.624;2022-07-05T06:03:31;15.20;;;6.67;;
68386;SDS011;55338;43.062;25.624;2022-07-05T06:05:57;12.25;;;6.68;;
68386;SDS011;55338;43.062;25.624;2022-07-05T06:08:23;16.60;;;7.97;;
68386;SDS011;55338;43.062;25.624;2022-07-05T06:10:49;11.45;;;6.72;;
68386;SDS011;55338;43.062;25.624;2022-07-05T06:13:15;12.43;;;6.95;;
68386;SDS011;55338;43.062;25.624;2022-07-05T06:15:41;12.33;;;6.93;;
68386;SDS011;55338;43.062;25.624;2022-07-05T06:18:07;16.40;;;8.15;;
68386;SDS011;55338;43.062;25.624;2022-07-05T06:20:35;13.52;;;6.90;;
68386;SDS011;55338;43.062;25.624;2022-07-05T06:23:02;10.40;;;5.85;;
68386;SDS011;55338;43.062;25.624;2022-07-05T06:25:30;11.52;;;4.75;;
68386;SDS011;55338;43.062;25.624;2022-07-05T06:30:26;11.63;;;5.63;;
68386;SDS011;55338;43.062;25.624;2022-07-05T06:32:54;15.23;;;5.28;;
68386;SDS011;55338;43.062;25.624;2022-07-05T06:35:20;11.88;;;4.63;;
68386;SDS011;55338;43.062;25.624;2022-07-05T06:40:21;10.30;;;5.90;;
68386;SDS011;55338;43.062;25.624;2022-07-05T06:42:48;13.55;;;5.28;;
68386;SDS011;55338;43.062;25.624;2022-07-05T06:45:15;7.93;;;4.88;;
68386;SDS011;55338;43.062;25.624;2022-07-05T06:47:41;10.23;;;5.00;;
68386;SDS011;55338;43.062;25.624;2022-07-05T06:50:07;9.85;;;4.90;;
68386;SDS011;55338;43.062;25.624;2022-07-05T06:52:34;8.20;;;4.93;;
68386;SDS011;55338;43.062;25.624;2022-07-05T06:55:00;10.93;;;4.65;;
68386;SDS011;55338;43.062;25.624;2022-07-05T06:57:26;9.40;;;4.65;;
68386;SDS011;55338;43.062;25.624;2022-07-05T06:59:52;10.40;;;4.90;;
68386;SDS011;55338;43.062;25.624;2022-07-05T07:02:18;7.30;;;4.40;;
68386;SDS011;55338;43.062;25.624;2022-07-05T07:04:44;6.50;;;4.17;;
68386;SDS011;55338;43.062;25.624;2022-07-05T07:07:11;8.80;;;4.22;;
68386;SDS011;55338;43.062;25.624;2022-07-05T07:09:56;10.48;;;4.32;;
68386;SDS011;55338;43.062;25.624;2022-07-05T07:12:22;7.05;;;3.60;;
68386;SDS011;55338;43.062;25.624;2022-07-05T07:14:48;9.93;;;4.53;;
68386;SDS011;55338;43.062;25.624;2022-07-05T07:17:14;8.63;;;4.50;;
68386;SDS011;55338;43.062;25.624;2022-07-05T07:19:40;8.47;;;4.60;;
68386;SDS011;55338;43.062;25.624;2022-07-05T07:22:05;5.05;;;3.60;;
68386;SDS011;55338;43.062;25.624;2022-07-05T07:24:31;5.23;;;3.77;;
68386;SDS011;55338;43.062;25.624;2022-07-05T07:26:58;6.85;;;3.90;;
68386;SDS011;55338;43.062;25.624;2022-07-05T07:29:33;8.68;;;4.60;;
68386;SDS011;55338;43.062;25.624;2022-07-05T07:32:00;7.28;;;4.40;;
68386;SDS011;55338;43.062;25.624;2022-07-05T07:34:27;8.50;;;4.38;;
68386;SDS011;55338;43.062;25.624;2022-07-05T07:36:54;6.07;;;3.73;;
68386;SDS011;55338;43.062;25.624;2022-07-05T07:39:21;10.70;;;4.25;;
68386;SDS011;55338;43.062;25.624;2022-07-05T07:41:47;6.95;;;4.65;;
68386;SDS011;55338;43.062;25.624;2022-07-05T07:44:13;6.28;;;4.00;;
68386;SDS011;55338;43.062;25.624;2022-07-05T07:46:39;11.60;;;5.23;;
68386;SDS011;55338;43.062;25.624;2022-07-05T07:49:05;6.63;;;4.30;;
68386;SDS011;55338;43.062;25.624;2022-07-05T07:51:32;7.60;;;4.53;;
68386;SDS011;55338;43.062;25.624;2022-07-05T07:53:58;7.40;;;4.13;;
68386;SDS011;55338;43.062;25.624;2022-07-05T07:56:24;6.68;;;4.00;;
68386;SDS011;55338;43.062;25.624;2022-07-05T07:58:50;7.70;;;4.63;;
68386;SDS011;55338;43.062;25.624;2022-07-05T08:01:17;7.43;;;4.20;;
68386;SDS011;55338;43.062;25.624;2022-07-05T08:03:43;9.05;;;4.95;;
68386;SDS011;55338;43.062;25.624;2022-07-05T08:06:09;6.95;;;4.20;;
68386;SDS011;55338;43.062;25.624;2022-07-05T08:08:40;6.88;;;5.05;;
68386;SDS011;55338;43.062;25.624;2022-07-05T08:11:08;9.40;;;4.70;;
68386;SDS011;55338;43.062;25.624;2022-07-05T08:13:34;8.63;;;4.80;;
68386;SDS011;55338;43.062;25.624;2022-07-05T08:16:01;7.38;;;5.25;;
68386;SDS011;55338;43.062;25.624;2022-07-05T08:18:27;8.60;;;5.95;;
68386;SDS011;55338;43.062;25.624;2022-07-05T08:21:12;8.60;;;4.90;;
68386;SDS011;55338;43.062;25.624;2022-07-05T08:24:06;10.70;;;5.03;;
68386;SDS011;55338;43.062;25.624;2022-07-05T08:26:34;6.82;;;5.22;;
68386;SDS011;55338;43.062;25.624;2022-07-05T08:29:01;9.70;;;5.22;;
68386;SDS011;55338;43.062;25.624;2022-07-05T08:31:29;6.13;;;4.50;;
68386;SDS011;55338;43.062;25.624;2022-07-05T08:33:57;7.95;;;4.75;;
68386;SDS011;55338;43.062;25.624;2022-07-05T08:36:23;7.20;;;5.00;;
68386;SDS011;55338;43.062;25.624;2022-07-05T08:38:49;8.20;;;5.43;;
68386;SDS011;55338;43.062;25.624;2022-07-05T08:41:17;10.43;;;5.45;;
68386;SDS011;55338;43.062;25.624;2022-07-05T08:43:44;8.40;;;4.50;;
68386;SDS011;55338;43.062;25.624;2022-07-05T08:46:12;8.93;;;5.22;;
68386;SDS011;55338;43.062;25.624;2022-07-05T08:48:41;7.53;;;5.60;;
68386;SDS011;55338;43.062;25.624;2022-07-05T08:51:13;6.80;;;5.05;;
68386;SDS011;55338;43.062;25.624;2022-07-05T08:53:42;10.68;;;5.28;;
68386;SDS011;55338;43.062;25.624;2022-07-05T08:56:09;10.33;;;4.70;;
68386;SDS011;55338;43.062;25.624;2022-07-05T08:58:37;10.00;;;5.90;;
68386;SDS011;55338;43.062;25.624;2022-07-05T09:01:03;8.25;;;4.70;;
68386;SDS011;55338;43.062;25.624;2022-07-05T09:03:34;10.55;;;4.43;;
68386;SDS011;55338;43.062;25.624;2022-07-05T09:06:12;10.52;;;5.15;;
68386;SDS011;55338;43.062;25.624;2022-07-05T09:08:41;7.43;;;4.93;;
68386;SDS011;55338;43.062;25.624;2022-07-05T09:11:08;11.60;;;5.43;;
68386;SDS011;55338;43.062;25.624;2022-07-05T09:13:39;9.27;;;4.95;;
68386;SDS011;55338;43.062;25.624;2022-07-05T09:16:06;8.40;;;5.53;;
68386;SDS011;55338;43.062;25.624;2022-07-05T09:18:49;9.45;;;5.28;;
68386;SDS011;55338;43.062;25.624;2022-07-05T09:23:59;11.10;;;5.35;;
68386;SDS011;55338;43.062;25.624;2022-07-05T09:26:37;8.23;;;5.30;;
68386;SDS011;55338;43.062;25.624;2022-07-05T09:29:05;10.23;;;5.43;;
68386;SDS011;55338;43.062;25.624;2022-07-05T09:31:40;9.68;;;5.35;;
68386;SDS011;55338;43.062;25.624;2022-07-05T09:36:57;11.45;;;5.20;;
68386;SDS011;55338;43.062;25.624;2022-07-05T09:44:54;13.60;;;5.45;;
68386;SDS011;55338;43.062;25.624;2022-07-05T09:47:24;11.10;;;4.97;;
68386;SDS011;55338;43.062;25.624;2022-07-05T09:49:53;11.63;;;5.30;;
68386;SDS011;55338;43.062;25.624;2022-07-05T09:52:31;8.75;;;5.50;;
68386;SDS011;55338;43.062;25.624;2022-07-05T09:57:40;7.83;;;5.50;;
68386;SDS011;55338;43.062;25.624;2022-07-05T10:00:08;7.88;;;5.63;;
68386;SDS011;55338;43.062;25.624;2022-07-05T10:02:40;5.95;;;4.88;;
68386;SDS011;55338;43.062;25.624;2022-07-05T10:05:08;8.02;;;5.65;;
68386;SDS011;55338;43.062;25.624;2022-07-05T10:08:11;31.23;;;5.93;;
68386;SDS011;55338;43.062;25.624;2022-07-05T10:10:30;8.93;;;4.40;;
68386;SDS011;55338;43.062;25.624;2022-07-05T10:13:01;7.68;;;5.32;;
68386;SDS011;55338;43.062;25.624;2022-07-05T10:15:29;6.97;;;5.43;;
68386;SDS011;55338;43.062;25.624;2022-07-05T10:23:05;8.07;;;5.57;;
68386;SDS011;55338;43.062;25.624;2022-07-05T10:25:34;7.47;;;5.18;;
68386;SDS011;55338;43.062;25.624;2022-07-05T10:28:01;12.57;;;6.20;;
68386;SDS011;55338;43.062;25.624;2022-07-05T10:30:28;11.38;;;6.40;;
68386;SDS011;55338;43.062;25.624;2022-07-05T10:32:55;10.38;;;5.25;;
68386;SDS011;55338;43.062;25.624;2022-07-05T10:35:21;8.87;;;5.40;;
68386;SDS011;55338;43.062;25.624;2022-07-05T10:37:47;11.60;;;5.20;;
68386;SDS011;55338;43.062;25.624;2022-07-05T10:40:14;9.13;;;4.70;;
68386;SDS011;55338;43.062;25.624;2022-07-05T10:42:45;7.95;;;5.00;;
68386;SDS011;55338;43.062;25.624;2022-07-05T10:50:55;7.65;;;5.30;;
68386;SDS011;55338;43.062;25.624;2022-07-05T10:58:36;9.85;;;5.43;;
68386;SDS011;55338;43.062;25.624;2022-07-05T11:04:28;9.68;;;5.57;;
68386;SDS011;55338;43.062;25.624;2022-07-05T11:06:44;9.20;;;6.25;;
68386;SDS011;55338;43.062;25.624;2022-07-05T11:09:15;6.57;;;5.55;;
68386;SDS011;55338;43.062;25.624;2022-07-05T11:16:47;6.97;;;6.00;;
68386;SDS011;55338;43.062;25.624;2022-07-05T11:19:34;9.65;;;6.35;;
68386;SDS011;55338;43.062;25.624;2022-07-05T11:22:20;13.57;;;6.10;;
68386;SDS011;55338;43.062;25.624;2022-07-05T11:24:45;9.20;;;6.33;;
68386;SDS011;55338;43.062;25.624;2022-07-05T11:27:12;7.80;;;6.13;;
68386;SDS011;55338;43.062;25.624;2022-07-05T11:32:23;9.50;;;5.85;;
68386;SDS011;55338;43.062;25.624;2022-07-05T11:35:14;11.20;;;6.50;;
68386;SDS011;55338;43.062;25.624;2022-07-05T11:40:42;9.73;;;6.28;;
68386;SDS011;55338;43.062;25.624;2022-07-05T11:43:08;10.10;;;5.90;;
68386;SDS011;55338;43.062;25.624;2022-07-05T11:45:34;9.85;;;6.45;;
68386;SDS011;55338;43.062;25.624;2022-07-05T11:48:01;10.13;;;5.93;;
68386;SDS011;55338;43.062;25.624;2022-07-05T11:50:32;7.40;;;6.40;;
68386;SDS011;55338;43.062;25.624;2022-07-05T11:52:59;9.20;;;6.68;;
68386;SDS011;55338;43.062;25.624;2022-07-05T11:55:27;7.60;;;6.07;;
68386;SDS011;55338;43.062;25.624;2022-07-05T11:57:54;10.60;;;5.63;;
68386;SDS011;55338;43.062;25.624;2022-07-05T12:00:25;8.23;;;6.13;;
68386;SDS011;55338;43.062;25.624;2022-07-05T12:02:54;7.97;;;5.75;;
68386;SDS011;55338;43.062;25.624;2022-07-05T12:05:20;17.88;;;6.28;;
68386;SDS011;55338;43.062;25.624;2022-07-05T12:07:50;9.43;;;5.55;;
68386;SDS011;55338;43.062;25.624;2022-07-05T12:10:17;9.15;;;5.43;;
68386;SDS011;55338;43.062;25.624;2022-07-05T12:13:05;10.03;;;5.83;;
68386;SDS011;55338;43.062;25.624;2022-07-05T12:15:32;10.10;;;6.45;;
68386;SDS011;55338;43.062;25.624;2022-07-05T12:17:59;8.82;;;6.63;;
68386;SDS011;55338;43.062;25.624;2022-07-05T12:20:31;8.82;;;5.60;;
68386;SDS011;55338;43.062;25.624;2022-07-05T12:22:59;7.65;;;5.97;;
68386;SDS011;55338;43.062;25.624;2022-07-05T12:25:26;8.63;;;5.90;;
68386;SDS011;55338;43.062;25.624;2022-07-05T12:27:54;9.18;;;5.80;;
68386;SDS011;55338;43.062;25.624;2022-07-05T12:30:22;12.07;;;6.28;;
68386;SDS011;55338;43.062;25.624;2022-07-05T12:32:55;11.57;;;5.95;;
68386;SDS011;55338;43.062;25.624;2022-07-05T12:40:46;12.23;;;5.75;;
68386;SDS011;55338;43.062;25.624;2022-07-05T12:43:15;9.07;;;6.38;;
68386;SDS011;55338;43.062;25.624;2022-07-05T12:45:43;8.80;;;6.35;;
68386;SDS011;55338;43.062;25.624;2022-07-05T12:48:29;7.05;;;5.93;;
68386;SDS011;55338;43.062;25.624;2022-07-05T12:50:59;10.17;;;5.60;;
68386;SDS011;55338;43.062;25.624;2022-07-05T12:53:25;10.55;;;6.20;;
68386;SDS011;55338;43.062;25.624;2022-07-05T12:56:11;7.50;;;5.70;;
68386;SDS011;55338;43.062;25.624;2022-07-05T12:59:00;8.07;;;5.80;;
68386;SDS011;55338;43.062;25.624;2022-07-05T13:04:18;11.80;;;5.77;;
68386;SDS011;55338;43.062;25.624;2022-07-05T13:06:48;12.02;;;6.35;;
68386;SDS011;55338;43.062;25.624;2022-07-05T13:14:36;8.25;;;6.05;;
68386;SDS011;55338;43.062;25.624;2022-07-05T13:17:03;8.67;;;6.73;;
68386;SDS011;55338;43.062;25.624;2022-07-05T13:19:29;9.27;;;5.93;;
68386;SDS011;55338;43.062;25.624;2022-07-05T13:21:55;10.23;;;6.32;;
68386;SDS011;55338;43.062;25.624;2022-07-05T13:24:21;13.43;;;5.97;;
68386;SDS011;55338;43.062;25.624;2022-07-05T13:26:47;9.57;;;6.13;;
68386;SDS011;55338;43.062;25.624;2022-07-05T13:29:12;7.93;;;6.15;;
68386;SDS011;55338;43.062;25.624;2022-07-05T13:31:38;7.77;;;5.80;;
68386;SDS011;55338;43.062;25.624;2022-07-05T13:34:04;11.02;;;6.10;;
68386;SDS011;55338;43.062;25.624;2022-07-05T13:36:30;10.83;;;6.33;;
68386;SDS011;55338;43.062;25.624;2022-07-05T13:38:55;9.38;;;6.90;;
68386;SDS011;55338;43.062;25.624;2022-07-05T13:41:21;11.63;;;6.00;;
68386;SDS011;55338;43.062;25.624;2022-07-05T13:43:47;10.88;;;6.25;;
68386;SDS011;55338;43.062;25.624;2022-07-05T13:46:13;11.65;;;6.30;;
68386;SDS011;55338;43.062;25.624;2022-07-05T13:48:39;8.47;;;6.23;;
68386;SDS011;55338;43.062;25.624;2022-07-05T13:51:05;11.65;;;6.45;;
68386;SDS011;55338;43.062;25.624;2022-07-05T13:53:31;11.55;;;6.20;;
68386;SDS011;55338;43.062;25.624;2022-07-05T13:55:57;8.53;;;6.20;;
68386;SDS011;55338;43.062;25.624;2022-07-05T13:58:23;9.90;;;6.10;;
68386;SDS011;55338;43.062;25.624;2022-07-05T14:00:49;9.93;;;6.97;;
68386;SDS011;55338;43.062;25.624;2022-07-05T14:03:15;10.13;;;6.30;;
68386;SDS011;55338;43.062;25.624;2022-07-05T14:05:44;10.38;;;6.45;;
68386;SDS011;55338;43.062;25.624;2022-07-05T14:08:12;8.63;;;6.68;;
68386;SDS011;55338;43.062;25.624;2022-07-05T14:10:38;9.80;;;6.07;;
68386;SDS011;55338;43.062;25.624;2022-07-05T14:13:05;9.63;;;6.43;;
68386;SDS011;55338;43.062;25.624;2022-07-05T14:15:31;8.70;;;6.00;;
68386;SDS011;55338;43.062;25.624;2022-07-05T14:17:57;6.90;;;5.80;;
68386;SDS011;55338;43.062;25.624;2022-07-05T14:20:27;8.82;;;6.40;;
68386;SDS011;55338;43.062;25.624;2022-07-05T14:22:53;7.20;;;6.47;;
68386;SDS011;55338;43.062;25.624;2022-07-05T14:25:19;11.93;;;6.37;;
68386;SDS011;55338;43.062;25.624;2022-07-05T14:27:45;8.95;;;7.22;;
68386;SDS011;55338;43.062;25.624;2022-07-05T14:30:10;13.47;;;7.43;;
68386;SDS011;55338;43.062;25.624;2022-07-05T14:32:37;11.40;;;6.68;;
68386;SDS011;55338;43.062;25.624;2022-07-05T14:35:03;8.43;;;6.40;;
68386;SDS011;55338;43.062;25.624;2022-07-05T14:37:30;9.13;;;7.07;;
68386;SDS011;55338;43.062;25.624;2022-07-05T14:39:56;7.50;;;6.40;;
68386;SDS011;55338;43.062;25.624;2022-07-05T14:42:22;8.63;;;6.80;;
68386;SDS011;55338;43.062;25.624;2022-07-05T14:44:47;9.77;;;6.27;;
68386;SDS011;55338;43.062;25.624;2022-07-05T14:47:13;11.02;;;6.55;;
68386;SDS011;55338;43.062;25.624;2022-07-05T14:49:39;8.27;;;5.67;;
68386;SDS011;55338;43.062;25.624;2022-07-05T14:52:05;9.63;;;6.78;;
68386;SDS011;55338;43.062;25.624;2022-07-05T14:54:31;9.53;;;6.57;;
68386;SDS011;55338;43.062;25.624;2022-07-05T14:56:56;8.82;;;6.30;;
68386;SDS011;55338;43.062;25.624;2022-07-05T14:59:22;11.63;;;6.80;;
68386;SDS011;55338;43.062;25.624;2022-07-05T15:01:48;10.38;;;6.45;;
68386;SDS011;55338;43.062;25.624;2022-07-05T15:04:13;9.97;;;5.90;;
68386;SDS011;55338;43.062;25.624;2022-07-05T15:06:39;9.27;;;5.85;;
68386;SDS011;55338;43.062;25.624;2022-07-05T15:09:06;7.88;;;5.72;;
68386;SDS011;55338;43.062;25.624;2022-07-05T15:11:32;8.17;;;5.77;;
68386;SDS011;55338;43.062;25.624;2022-07-05T15:13:57;9.73;;;5.47;;
68386;SDS011;55338;43.062;25.624;2022-07-05T15:16:25;11.25;;;6.35;;
68386;SDS011;55338;43.062;25.624;2022-07-05T15:18:51;9.30;;;5.90;;
68386;SDS011;55338;43.062;25.624;2022-07-05T15:21:18;12.17;;;5.80;;
68386;SDS011;55338;43.062;25.624;2022-07-05T15:23:44;9.32;;;5.82;;
68386;SDS011;55338;43.062;25.624;2022-07-05T15:26:10;7.68;;;5.78;;
68386;SDS011;55338;43.062;25.624;2022-07-05T15:28:36;11.73;;;6.00;;
68386;SDS011;55338;43.062;25.624;2022-07-05T15:31:02;8.15;;;5.20;;
68386;SDS011;55338;43.062;25.624;2022-07-05T15:33:27;8.55;;;5.32;;
68386;SDS011;55338;43.062;25.624;2022-07-05T15:35:55;9.70;;;5.93;;